Time;durP1;ratioP1;P1;durP2;ratioP2;P2;SDS_P1;SDS_P2;PMS_P1;PMS_P2;Temp;Humidity;BMP_temperature;BMP_pressure;BME280_temperature;BME280_humidity;BME280_pressure;Samples;Min_cycle;Max_cycle;Signal;HPM_P1;HPM_P2
2022/12/11 00:01:57;;;;;;;58.23;40.93;;;;;;;11.44;100.00;97582.53;5071557;28;20192;-55
2022/12/11 00:04:24;;;;;;;64.07;42.03;;;;;;;11.44;100.00;97593.66;5072180;28;20194;-55
2022/12/11 00:06:51;;;;;;;63.90;41.27;;;;;;;11.35;100.00;97557.81;5075589;28;20192;-55
2022/12/11 00:09:19;;;;;;;65.83;42.13;;;;;;;11.08;100.00;97572.00;5074856;28;20202;-55
2022/12/11 00:11:46;;;;;;;68.67;43.87;;;;;;;11.18;100.00;97555.56;5075021;28;20191;-55
2022/12/11 00:14:14;;;;;;;64.73;43.70;;;;;;;10.82;100.00;97527.09;5074959;28;20188;-55
2022/12/11 00:16:42;;;;;;;62.43;42.50;;;;;;;10.85;100.00;97535.56;5074819;28;20188;-55
2022/12/11 00:19:09;;;;;;;62.20;43.20;;;;;;;10.91;100.00;97506.34;5074558;28;20223;-55
2022/12/11 00:21:36;;;;;;;62.47;44.10;;;;;;;10.82;100.00;97511.66;5074821;28;20187;-55
2022/12/11 00:24:02;;;;;;;71.83;46.17;;;;;;;10.82;100.00;97498.81;5074761;28;20188;-55
2022/12/11 00:26:29;;;;;;;72.53;45.70;;;;;;;10.68;100.00;97496.47;5074940;28;20324;-55
2022/12/11 00:28:57;;;;;;;74.53;46.03;;;;;;;10.77;100.00;97487.78;5074812;28;20191;-55
2022/12/11 00:31:24;;;;;;;65.33;43.37;;;;;;;10.87;100.00;97513.28;5074548;28;20248;-55
2022/12/11 00:33:52;;;;;;;64.93;44.80;;;;;;;10.94;100.00;97525.13;5074502;28;20192;-55
2022/12/11 00:36:21;;;;;;;65.97;44.67;;;;;;;10.94;100.00;97519.16;5074270;28;20191;-55
2022/12/11 00:38:48;;;;;;;67.37;45.07;;;;;;;10.99;100.00;97489.94;5074443;28;20573;-55
2022/12/11 00:41:16;;;;;;;63.73;43.77;;;;;;;11.02;100.00;97515.56;5074568;28;20211;-55
2022/12/11 00:43:43;;;;;;;59.77;44.57;;;;;;;11.04;100.00;97523.28;5074225;28;20658;-55
2022/12/11 00:46:10;;;;;;;66.93;43.43;;;;;;;11.09;100.00;97519.75;5074120;28;20199;-55
2022/12/11 00:48:37;;;;;;;64.40;42.93;;;;;;;11.17;100.00;97525.59;5074301;28;20191;-55
2022/12/11 00:51:06;;;;;;;61.47;41.27;;;;;;;11.21;100.00;97541.78;5074352;28;20195;-55
2022/12/11 00:53:32;;;;;;;63.33;42.73;;;;;;;11.23;100.00;97512.63;5074256;28;20195;-55
2022/12/11 00:55:59;;;;;;;53.83;39.10;;;;;;;11.26;100.00;97512.56;5074098;28;20188;-55
2022/12/11 00:58:26;;;;;;;58.87;37.10;;;;;;;11.31;100.00;97522.78;5074049;28;20677;-55
2022/12/11 01:00:53;;;;;;;54.73;36.13;;;;;;;11.32;100.00;97490.22;5073880;28;20230;-55
2022/12/11 01:03:19;;;;;;;53.60;36.80;;;;;;;11.33;100.00;97486.75;5073781;28;20190;-55
2022/12/11 01:05:53;;;;;;;53.23;36.87;;;;;;;11.39;100.00;97491.78;5074403;28;20687;-55
2022/12/11 01:08:22;;;;;;;58.73;37.90;;;;;;;11.44;100.00;97477.13;5074255;28;20192;-55
2022/12/11 01:10:47;;;;;;;54.30;36.50;;;;;;;11.44;100.00;97456.53;5074282;28;20187;-55
2022/12/11 01:13:15;;;;;;;55.83;36.90;;;;;;;11.42;100.00;97445.44;5074001;28;20248;-55
2022/12/11 01:15:44;;;;;;;56.17;34.97;;;;;;;11.31;100.00;97439.69;5073365;28;20191;-55
2022/12/11 01:18:12;;;;;;;52.17;34.73;;;;;;;11.31;100.00;97461.09;5073578;28;20200;-55
2022/12/11 01:20:41;;;;;;;49.87;35.17;;;;;;;11.40;100.00;97466.03;5073639;28;20264;-55
2022/12/11 01:23:08;;;;;;;52.03;35.13;;;;;;;11.49;100.00;97459.88;5073671;28;20268;-55
2022/12/11 01:25:38;;;;;;;49.30;34.50;;;;;;;11.52;100.00;97457.22;5073506;28;20194;-55
2022/12/11 01:28:05;;;;;;;57.93;36.47;;;;;;;11.57;100.00;97451.13;5073654;28;20195;-55
2022/12/11 01:30:32;;;;;;;49.33;34.70;;;;;;;11.62;100.00;97441.56;5073430;28;20747;-55
2022/12/11 01:32:59;;;;;;;50.37;34.97;;;;;;;11.69;100.00;97432.06;5073243;28;20245;-55
2022/12/11 01:35:26;;;;;;;46.50;32.27;;;;;;;11.77;100.00;97432.72;5073314;28;20245;-55
2022/12/11 01:37:53;;;;;;;48.63;32.30;;;;;;;11.83;100.00;97448.03;5073217;28;20191;-55
2022/12/11 01:40:21;;;;;;;45.70;33.87;;;;;;;11.82;100.00;97438.63;5073189;28;20215;-55
2022/12/11 01:42:50;;;;;;;45.37;32.37;;;;;;;11.89;100.00;97418.75;5073367;28;20217;-55
2022/12/11 01:45:26;;;;;;;46.93;31.73;;;;;;;11.96;100.00;97410.00;5072968;28;20265;-55
2022/12/11 01:47:55;;;;;;;48.27;33.03;;;;;;;11.93;100.00;97379.19;5072965;28;20281;-55
2022/12/11 01:50:22;;;;;;;48.47;33.57;;;;;;;11.93;100.00;97356.91;5073229;28;20192;-55
2022/12/11 01:52:50;;;;;;;54.47;36.42;;;;;;;11.69;100.00;97288.88;5072597;28;20851;-55
2022/12/11 01:55:17;;;;;;;55.63;34.60;;;;;;;11.73;100.00;97297.34;5072987;28;20183;-55
2022/12/11 01:57:47;;;;;;;51.90;34.77;;;;;;;11.70;100.00;97305.97;5072873;28;20238;-55
2022/12/11 02:00:16;;;;;;;49.30;33.53;;;;;;;11.65;100.00;97318.06;5073806;28;20237;-55
2022/12/11 02:02:44;;;;;;;50.63;34.17;;;;;;;11.63;100.00;97309.56;5073197;28;20191;-55
2022/12/11 02:05:12;;;;;;;47.23;33.30;;;;;;;11.64;100.00;97331.81;5072829;28;20191;-55
2022/12/11 02:07:42;;;;;;;52.60;33.37;;;;;;;11.62;100.00;97332.75;5072499;28;20198;-55
2022/12/11 02:10:11;;;;;;;52.57;32.93;;;;;;;11.60;100.00;97378.19;5072384;28;20187;-55
2022/12/11 02:12:43;;;;;;;49.63;33.07;;;;;;;11.55;100.00;97328.59;5072637;28;20219;-55
2022/12/11 02:15:17;;;;;;;48.53;32.67;;;;;;;11.22;100.00;97299.34;5072433;28;20188;-55
2022/12/11 02:17:51;;;;;;;51.87;32.43;;;;;;;11.30;100.00;97325.72;5072894;28;20195;-54
2022/12/11 02:20:23;;;;;;;47.53;33.37;;;;;;;11.37;100.00;97339.31;5072518;28;20215;-55
2022/12/11 02:23:27;;;;;;;53.50;31.63;;;;;;;11.47;100.00;97328.78;5073028;28;20585;-55
2022/12/11 02:26:05;;;;;;;46.80;30.13;;;;;;;11.60;100.00;97331.91;5070488;28;20191;-55
2022/12/11 02:28:38;;;;;;;45.57;29.70;;;;;;;11.65;100.00;97342.94;5072671;28;20183;-55
2022/12/11 02:31:12;;;;;;;44.87;31.97;;;;;;;11.72;100.00;97322.25;5072681;28;20200;-55
2022/12/11 02:33:44;;;;;;;72.30;41.40;;;;;;;11.65;100.00;97301.78;5059563;28;20203;-55
2022/12/11 02:36:17;;;;;;;36.77;23.70;;;;;;;11.96;100.00;97322.53;5049971;28;20196;-55
2022/12/11 02:38:49;;;;;;;53.87;32.57;;;;;;;11.95;100.00;97311.38;5050685;28;20200;-56
2022/12/11 02:41:18;;;;;;;41.57;28.77;;;;;;;12.04;100.00;97328.31;5050578;28;20223;-55
2022/12/11 02:43:49;;;;;;;40.33;29.47;;;;;;;12.07;100.00;97307.66;5050610;28;20196;-56
2022/12/11 02:46:18;;;;;;;71.37;40.77;;;;;;;12.03;100.00;97291.44;5050002;28;20192;-55
2022/12/11 02:48:47;;;;;;;44.27;29.70;;;;;;;12.14;100.00;97294.59;5050295;28;20188;-55
2022/12/11 02:51:16;;;;;;;44.80;29.43;;;;;;;12.21;100.00;97296.16;5044775;28;20630;-55
2022/12/11 02:53:45;;;;;;;50.53;32.50;;;;;;;12.26;100.00;97286.56;5048143;28;20265;-56
2022/12/11 02:56:16;;;;;;;51.83;30.90;;;;;;;12.32;100.00;97281.28;5050188;28;20663;-55
2022/12/11 02:58:48;;;;;;;36.80;22.03;;;;;;;12.43;100.00;97286.13;5052110;28;20192;-55
2022/12/11 03:01:15;;;;;;;38.00;22.93;;;;;;;12.53;100.00;97299.59;5051824;28;20224;-55
2022/12/11 03:03:42;;;;;;;37.33;24.50;;;;;;;12.49;100.00;97296.28;5052021;28;20188;-55
2022/12/11 03:06:13;;;;;;;36.23;24.20;;;;;;;12.48;100.00;97291.16;5049905;28;20574;-55
2022/12/11 03:08:40;;;;;;;34.10;23.30;;;;;;;12.52;100.00;97334.00;5051681;28;20662;-55
2022/12/11 03:11:10;;;;;;;40.03;23.80;;;;;;;12.53;100.00;97309.91;5052563;28;20196;-55
2022/12/11 03:13:37;;;;;;;43.27;24.30;;;;;;;12.53;100.00;97272.13;5051749;28;20219;-54
2022/12/11 03:16:15;;;;;;;39.17;24.97;;;;;;;12.49;100.00;97291.13;5051837;28;20230;-54
2022/12/11 03:18:49;;;;;;;38.77;26.60;;;;;;;12.59;100.00;97304.59;5051890;28;20677;-54
2022/12/11 03:21:22;;;;;;;40.93;24.73;;;;;;;12.57;100.00;97303.81;5051796;28;20791;-55
2022/12/11 03:23:55;;;;;;;40.83;25.37;;;;;;;12.54;100.00;97320.19;5052371;28;20199;-54
2022/12/11 03:26:23;;;;;;;44.47;26.23;;;;;;;12.58;100.00;97332.06;5052233;28;20196;-55
2022/12/11 03:28:56;;;;;;;39.00;23.73;;;;;;;12.65;100.00;97331.03;5051917;28;20197;-54
2022/12/11 03:31:30;;;;;;;38.40;23.53;;;;;;;12.75;100.00;97329.91;5051826;28;20229;-54
2022/12/11 03:34:03;;;;;;;35.03;20.03;;;;;;;12.82;100.00;97322.88;5052313;28;20192;-54
2022/12/11 03:36:34;;;;;;;38.30;23.90;;;;;;;12.86;100.00;97329.59;5052135;28;20227;-55
2022/12/11 03:39:05;;;;;;;38.33;24.37;;;;;;;12.93;100.00;97328.56;5051770;28;20674;-54
2022/12/11 03:41:35;;;;;;;58.63;33.63;;;;;;;12.88;100.00;97333.81;5056041;28;20220;-54
2022/12/11 03:44:03;;;;;;;43.73;28.53;;;;;;;12.92;100.00;97342.34;5055659;28;20196;-55
2022/12/11 03:46:34;;;;;;;38.50;23.97;;;;;;;12.88;100.00;97341.56;5055473;28;20271;-54
2022/12/11 03:49:06;;;;;;;35.10;25.27;;;;;;;12.81;100.00;97339.19;5055348;28;20218;-54
2022/12/11 03:51:35;;;;;;;37.27;23.33;;;;;;;12.64;100.00;97315.63;5055045;28;20229;-55
2022/12/11 03:54:02;;;;;;;37.23;25.43;;;;;;;12.75;100.00;97311.88;5055456;28;20651;-54
2022/12/11 03:56:34;;;;;;;34.87;23.93;;;;;;;12.58;100.00;97297.78;5055430;28;20622;-55
2022/12/11 03:59:01;;;;;;;34.40;25.17;;;;;;;12.63;100.00;97319.09;5055318;28;20184;-54
2022/12/11 04:01:27;;;;;;;37.73;24.50;;;;;;;12.34;100.00;97284.66;5054914;28;20212;-55
2022/12/11 04:03:56;;;;;;;39.73;24.47;;;;;;;12.41;100.00;97329.13;5054955;28;20629;-55
2022/12/11 04:06:22;;;;;;;33.30;23.30;;;;;;;12.35;100.00;97330.13;5055315;28;20199;-55
2022/12/11 04:08:49;;;;;;;37.47;21.97;;;;;;;12.36;100.00;97333.56;5054805;28;20717;-55
2022/12/11 04:11:34;;;;;;;34.10;20.87;;;;;;;12.34;100.00;97325.00;5055031;28;20204;-55
2022/12/11 04:16:45;;;;;;;36.83;21.47;;;;;;;12.29;100.00;97330.28;5054926;28;20276;-55
2022/12/11 04:24:41;;;;;;;38.83;20.73;;;;;;;12.24;100.00;97328.69;5034777;28;20224;-55
2022/12/11 04:27:08;;;;;;;36.43;21.17;;;;;;;12.29;100.00;97326.84;5034861;28;20196;-55
2022/12/11 04:29:35;;;;;;;31.57;18.13;;;;;;;12.41;100.00;97323.97;5034979;28;20259;-54
2022/12/11 04:32:02;;;;;;;27.43;15.17;;;;;;;12.56;100.00;97309.81;5034770;28;20282;-55
2022/12/11 04:34:30;;;;;;;27.23;16.73;;;;;;;12.65;100.00;97325.03;5034684;28;20204;-55
2022/12/11 04:36:57;;;;;;;25.77;17.00;;;;;;;12.71;100.00;97325.75;5034632;28;20200;-55
2022/12/11 04:39:23;;;;;;;25.17;15.10;;;;;;;12.81;100.00;97324.59;5034336;28;20196;-55
2022/12/11 04:41:50;;;;;;;25.63;16.47;;;;;;;12.83;100.00;97330.53;5034502;28;20220;-55
2022/12/11 04:44:17;;;;;;;21.33;15.17;;;;;;;12.90;100.00;97333.81;5034719;28;20590;-55
2022/12/11 04:46:44;;;;;;;19.73;12.90;;;;;;;13.00;100.00;97333.50;5034430;28;20729;-55
2022/12/11 04:49:11;;;;;;;19.47;11.63;;;;;;;13.16;100.00;97333.94;5034330;28;20190;-55
2022/12/11 04:51:39;;;;;;;13.10;10.03;;;;;;;13.43;98.31;97350.38;5033150;28;20228;-55
2022/12/11 04:54:06;;;;;;;18.97;11.30;;;;;;;13.66;96.61;97341.91;5034134;28;20198;-55
2022/12/11 04:56:33;;;;;;;13.83;9.43;;;;;;;14.00;94.47;97334.81;5034765;28;20191;-55
2022/12/11 04:59:00;;;;;;;13.63;8.93;;;;;;;14.03;92.82;97334.72;5034137;28;20190;-55
2022/12/11 05:01:27;;;;;;;18.77;9.80;;;;;;;14.11;92.35;97340.50;5034034;28;20566;-55
2022/12/11 05:03:54;;;;;;;19.90;10.17;;;;;;;14.12;92.28;97343.00;5034165;28;20205;-55
2022/12/11 05:06:21;;;;;;;19.67;11.70;;;;;;;14.08;92.45;97346.59;5034856;28;20190;-55
2022/12/11 05:08:49;;;;;;;19.33;12.60;;;;;;;14.06;92.57;97356.09;5034538;28;20249;-55
2022/12/11 05:11:16;;;;;;;20.90;13.90;;;;;;;14.00;92.58;97360.63;5033830;28;20704;-55
2022/12/11 05:13:44;;;;;;;25.00;16.60;;;;;;;13.92;92.51;97347.97;5033636;28;20189;-55
2022/12/11 05:16:13;;;;;;;24.10;16.33;;;;;;;13.84;92.85;97367.19;5034005;28;20196;-56
2022/12/11 05:18:39;;;;;;;27.17;17.80;;;;;;;13.70;93.40;97367.59;5033634;28;20251;-55
2022/12/11 05:21:09;;;;;;;27.20;18.27;;;;;;;13.57;94.13;97368.84;5033602;28;20712;-55
2022/12/11 05:23:36;;;;;;;28.43;18.57;;;;;;;13.41;94.84;97373.59;5033530;28;20193;-55
2022/12/11 05:26:06;;;;;;;29.53;19.67;;;;;;;13.31;95.51;97363.59;5033923;28;20189;-55
2022/12/11 05:28:36;;;;;;;29.60;19.17;;;;;;;13.11;96.58;97356.44;5033799;28;20194;-55
2022/12/11 05:31:05;;;;;;;29.27;20.77;;;;;;;13.03;97.53;97358.34;5033712;28;20254;-55
2022/12/11 05:33:33;;;;;;;29.87;20.23;;;;;;;12.98;98.14;97375.69;5033935;28;20193;-55
2022/12/11 05:36:00;;;;;;;27.77;20.60;;;;;;;12.92;98.59;97388.72;5033238;28;20657;-55
2022/12/11 05:38:27;;;;;;;33.47;24.73;;;;;;;12.94;99.43;97394.66;5032443;28;20927;-55
2022/12/11 05:40:57;;;;;;;25.63;20.43;;;;;;;12.86;98.86;97371.69;5033251;28;20223;-55
2022/12/11 05:43:27;;;;;;;32.43;20.67;;;;;;;12.99;98.61;97403.97;5033320;28;20192;-56
2022/12/11 05:45:54;;;;;;;36.43;21.97;;;;;;;13.03;98.82;97407.31;5033403;28;20193;-56
2022/12/11 05:48:21;;;;;;;31.70;20.27;;;;;;;12.95;98.29;97397.22;5033505;28;20201;-56
2022/12/11 05:50:56;;;;;;;34.47;23.20;;;;;;;12.83;98.78;97387.22;5033428;28;20196;-56
2022/12/11 05:53:24;;;;;;;35.93;23.77;;;;;;;12.73;99.37;97397.81;5033166;28;20225;-55
2022/12/11 05:55:51;;;;;;;34.57;25.20;;;;;;;12.52;100.00;97385.50;5033077;28;20185;-56
2022/12/11 05:58:17;;;;;;;50.00;33.57;;;;;;;12.60;100.00;97402.44;5056212;28;20275;-56
2022/12/11 06:00:46;;;;;;;35.70;23.17;;;;;;;12.53;100.00;97416.34;5039898;28;20217;-56
2022/12/11 06:03:13;;;;;;;32.60;23.23;;;;;;;12.49;100.00;97429.34;5032732;28;20193;-56
2022/12/11 06:05:40;;;;;;;49.33;33.50;;;;;;;12.46;100.00;97443.16;5038341;28;20196;-56
2022/12/11 06:08:07;;;;;;;47.53;33.67;;;;;;;12.43;100.00;97444.06;5052813;28;20250;-56
2022/12/11 06:10:34;;;;;;;43.70;24.90;;;;;;;12.44;100.00;97460.38;5052682;28;20200;-56
2022/12/11 06:13:00;;;;;;;39.53;26.37;;;;;;;12.39;100.00;97457.03;5053424;28;20585;-56
2022/12/11 06:15:27;;;;;;;39.20;25.33;;;;;;;12.43;100.00;97482.72;5052500;28;20254;-55
2022/12/11 06:17:55;;;;;;;32.03;24.03;;;;;;;12.46;100.00;97476.63;5057998;28;20249;-55
2022/12/11 06:20:22;;;;;;;36.03;25.03;;;;;;;12.48;100.00;97479.16;5071778;28;20281;-56
2022/12/11 06:22:49;;;;;;;38.47;25.23;;;;;;;12.50;100.00;97480.00;5071164;28;20195;-56
2022/12/11 06:25:16;;;;;;;31.93;23.30;;;;;;;12.58;100.00;97472.94;5072461;28;20199;-56
2022/12/11 06:27:43;;;;;;;31.80;23.67;;;;;;;12.55;100.00;97475.56;5073151;28;20191;-56
2022/12/11 06:30:11;;;;;;;29.00;23.10;;;;;;;12.59;100.00;97474.59;5072807;28;20210;-56
2022/12/11 06:32:37;;;;;;;34.67;26.55;;;;;;;12.66;100.00;97471.00;5071119;28;20438;-56
2022/12/11 06:35:06;;;;;;;36.13;23.70;;;;;;;12.71;100.00;97475.16;5072304;28;20246;-55
2022/12/11 06:37:34;;;;;;;33.80;23.07;;;;;;;12.70;100.00;97486.34;5072308;28;20195;-55
2022/12/11 06:40:01;;;;;;;32.87;22.87;;;;;;;12.72;100.00;97468.25;5072084;28;20196;-55
2022/12/11 06:42:29;;;;;;;38.43;23.23;;;;;;;12.68;100.00;97461.50;5072079;28;20701;-55
2022/12/11 06:44:58;;;;;;;32.20;23.40;;;;;;;12.78;100.00;97470.69;5072158;28;20196;-55
2022/12/11 06:47:25;;;;;;;42.20;27.10;;;;;;;12.85;100.00;97467.94;5071858;28;20940;-56
2022/12/11 06:49:52;;;;;;;34.40;25.43;;;;;;;12.92;100.00;97474.63;5072131;28;20187;-55
2022/12/11 06:52:21;;;;;;;33.90;24.77;;;;;;;12.95;100.00;97468.53;5072116;28;20288;-55
2022/12/11 06:54:47;;;;;;;35.73;25.40;;;;;;;13.01;100.00;97481.28;5072398;28;20194;-56
2022/12/11 06:57:14;;;;;;;36.70;24.57;;;;;;;13.08;100.00;97484.56;5072137;28;20561;-56
2022/12/11 06:59:41;;;;;;;38.60;23.07;;;;;;;13.10;99.99;97488.81;5072149;28;20187;-56
2022/12/11 07:02:10;;;;;;;37.10;22.10;;;;;;;13.16;99.65;97491.22;5071961;28;20217;-56
2022/12/11 07:04:37;;;;;;;31.17;20.77;;;;;;;13.27;99.70;97490.91;5072089;28;20276;-57
2022/12/11 07:07:04;;;;;;;28.53;20.30;;;;;;;13.39;98.79;97486.31;5071931;28;20233;-56
2022/12/11 07:09:32;;;;;;;30.60;20.80;;;;;;;13.45;97.61;97491.31;5070534;28;20196;-56
2022/12/11 07:11:59;;;;;;;31.33;21.63;;;;;;;13.58;97.25;97489.22;5068462;28;20662;-57
2022/12/11 07:14:25;;;;;;;39.17;27.93;;;;;;;13.51;96.47;97501.44;5052569;28;20241;-56
2022/12/11 07:16:52;;;;;;;43.70;31.53;;;;;;;13.42;96.59;97503.41;5056107;28;20188;-56
2022/12/11 07:19:19;;;;;;;42.33;31.00;;;;;;;13.50;97.23;97504.91;5070884;28;20207;-56
2022/12/11 07:21:46;;;;;;;44.47;29.90;;;;;;;13.59;97.17;97509.81;5075799;28;20219;-57
2022/12/11 07:24:13;;;;;;;40.93;29.50;;;;;;;13.59;97.26;97499.50;5076773;28;20265;-56
2022/12/11 07:26:41;;;;;;;43.07;30.03;;;;;;;13.68;96.19;97490.63;5075458;28;20689;-57
2022/12/11 07:29:08;;;;;;;49.63;35.70;;;;;;;13.59;96.52;97493.50;5075866;28;20191;-56
2022/12/11 07:31:35;;;;;;;47.15;35.22;;;;;;;13.60;96.71;97495.16;5075445;28;20442;-56
2022/12/11 07:34:05;;;;;;;46.73;34.33;;;;;;;13.66;96.53;97499.31;5075636;28;20200;-56
2022/12/11 07:36:32;;;;;;;46.03;34.03;;;;;;;13.61;96.38;97502.03;5075345;28;20199;-56
2022/12/11 07:39:00;;;;;;;47.00;34.43;;;;;;;13.48;96.88;97501.53;5075492;28;20191;-56
2022/12/11 07:41:27;;;;;;;52.00;35.03;;;;;;;13.44;97.49;97510.22;5075868;28;20284;-56
2022/12/11 07:43:56;;;;;;;40.57;31.10;;;;;;;13.29;98.27;97505.50;5075595;28;20196;-56
2022/12/11 07:46:25;;;;;;;54.17;35.63;;;;;;;13.25;99.42;97505.59;5075472;28;20194;-57
2022/12/11 07:48:52;;;;;;;50.53;37.57;;;;;;;13.26;99.58;97490.09;5075111;28;20200;-56
2022/12/11 07:51:21;;;;;;;55.10;39.10;;;;;;;13.40;99.75;97488.00;5074869;28;20250;-55
2022/12/11 07:53:49;;;;;;;54.77;38.60;;;;;;;13.52;99.32;97497.97;5075491;28;20212;-56
2022/12/11 07:56:17;;;;;;;56.43;38.60;;;;;;;13.71;99.45;97500.03;5074891;28;20196;-56
2022/12/11 07:58:44;;;;;;;54.47;40.27;;;;;;;13.88;98.94;97497.81;5075046;28;20184;-56
2022/12/11 08:01:14;;;;;;;53.10;36.13;;;;;;;13.98;96.77;97489.75;5068658;28;20297;-56
2022/12/11 08:03:44;;;;;;;51.50;36.37;;;;;;;14.04;96.07;97488.72;5054680;28;20219;-56
2022/12/11 08:06:11;;;;;;;49.67;37.90;;;;;;;14.07;96.27;97511.88;5055172;28;20192;-56
2022/12/11 08:08:40;;;;;;;46.90;36.97;;;;;;;14.17;96.39;97513.31;5054771;28;20193;-56
2022/12/11 08:11:08;;;;;;;51.47;34.97;;;;;;;14.11;96.45;97495.41;5054757;28;20201;-56
2022/12/11 08:13:36;;;;;;;50.13;35.53;;;;;;;14.23;94.81;97527.78;5054720;28;20656;-56
2022/12/11 08:16:04;;;;;;;49.93;38.87;;;;;;;14.20;94.72;97529.53;5054835;28;20254;-56
2022/12/11 08:18:33;;;;;;;54.17;37.97;;;;;;;14.24;95.34;97525.16;5054588;28;20192;-56
2022/12/11 08:21:04;;;;;;;40.93;28.50;;;;;;;14.26;95.29;97533.69;5054699;28;20308;-56
2022/12/11 08:23:31;;;;;;;50.43;36.53;;;;;;;14.40;94.57;97530.72;5054752;28;20189;-57
2022/12/11 08:25:58;;;;;;;48.17;35.17;;;;;;;14.42;94.79;97516.84;5054389;28;20204;-56
2022/12/11 08:28:24;;;;;;;50.73;33.97;;;;;;;14.55;94.50;97507.88;5054230;28;20246;-56
2022/12/11 08:30:51;;;;;;;43.73;28.33;;;;;;;14.70;94.13;97504.78;5050948;28;20701;-57
2022/12/11 08:33:18;;;;;;;45.30;31.48;;;;;;;14.85;94.00;97500.88;5053145;28;20477;-56
2022/12/11 08:35:46;;;;;;;41.43;30.13;;;;;;;15.04;92.98;97490.75;5053958;28;20191;-57
2022/12/11 08:38:14;;;;;;;34.37;22.40;;;;;;;15.18;91.12;97486.81;5053462;28;20663;-57
2022/12/11 08:40:41;;;;;;;45.90;30.93;;;;;;;15.23;90.94;97484.91;5053563;28;20185;-57
2022/12/11 08:43:08;;;;;;;43.67;29.33;;;;;;;15.37;91.09;97481.84;5051934;28;20212;-57
2022/12/11 08:45:34;;;;;;;42.23;28.47;;;;;;;15.51;90.82;97482.22;5053411;28;20198;-57
2022/12/11 08:48:01;;;;;;;46.00;30.33;;;;;;;15.63;90.38;97497.31;5053752;28;20195;-57
2022/12/11 08:50:28;;;;;;;35.17;24.73;;;;;;;15.76;89.78;97489.97;5071172;28;20196;-57
2022/12/11 08:52:57;;;;;;;37.17;25.30;;;;;;;15.87;88.17;97480.91;5074127;28;20288;-57
2022/12/11 08:55:24;;;;;;;30.57;22.30;;;;;;;15.86;87.58;97497.31;5073974;28;20241;-57
2022/12/11 08:57:51;;;;;;;39.17;25.83;;;;;;;15.94;88.59;97516.03;5073921;28;20229;-57
2022/12/11 09:00:18;;;;;;;32.00;25.10;;;;;;;16.04;88.78;97536.41;5074010;28;20190;-57
2022/12/11 09:02:45;;;;;;;34.10;24.43;;;;;;;16.17;87.98;97532.47;5073904;28;20300;-57
2022/12/11 09:05:12;;;;;;;34.77;24.13;;;;;;;16.17;87.46;97537.63;5073564;28;20271;-57
2022/12/11 09:07:38;;;;;;;28.67;22.53;;;;;;;16.34;86.79;97551.63;5073611;28;20215;-56
2022/12/11 09:10:08;;;;;;;36.23;24.03;;;;;;;16.44;86.03;97546.97;5073545;28;20193;-57
2022/12/11 09:12:36;;;;;;;26.90;19.90;;;;;;;16.43;85.67;97545.25;5073680;28;20196;-57
2022/12/11 09:15:03;;;;;;;30.50;22.00;;;;;;;16.48;85.02;97540.78;5056839;28;20196;-56
2022/12/11 09:17:30;;;;;;;30.60;21.93;;;;;;;16.48;85.11;97543.34;5053147;28;20570;-55
2022/12/11 09:19:57;;;;;;;26.47;20.23;;;;;;;16.55;85.53;97531.88;5052788;28;20204;-56
2022/12/11 09:22:24;;;;;;;32.77;22.00;;;;;;;16.60;85.58;97516.97;5053037;28;20211;-57
2022/12/11 09:24:51;;;;;;;30.37;22.67;;;;;;;16.59;84.63;97515.28;5052704;28;20187;-57
2022/12/11 09:27:20;;;;;;;30.30;20.87;;;;;;;16.61;84.70;97504.88;5052537;28;20254;-57
2022/12/11 09:29:47;;;;;;;33.63;21.60;;;;;;;16.66;84.67;97508.09;5052750;28;20187;-57
2022/12/11 09:32:14;;;;;;;34.33;24.03;;;;;;;16.64;84.23;97490.03;5050325;28;20580;-57
2022/12/11 09:34:40;;;;;;;26.47;18.53;;;;;;;16.64;83.82;97486.59;5052701;28;20184;-57
2022/12/11 09:37:07;;;;;;;28.03;16.03;;;;;;;16.64;83.87;97486.59;5052031;28;20189;-57
2022/12/11 09:39:34;;;;;;;24.47;17.70;;;;;;;16.63;83.56;97475.38;5049216;28;20196;-57
2022/12/11 09:42:08;;;;;;;20.33;14.43;;;;;;;16.70;83.17;97463.84;5051355;28;20215;-57
2022/12/11 09:44:41;;;;;;;20.80;14.37;;;;;;;16.66;82.87;97451.91;5047568;28;20214;-57
2022/12/11 09:47:23;;;;;;;20.70;12.77;;;;;;;16.67;82.86;97451.03;5051090;28;20196;-57
2022/12/11 09:49:58;;;;;;;20.27;12.60;;;;;;;16.78;82.96;97456.63;5051079;28;20203;-57
2022/12/11 09:52:34;;;;;;;24.97;12.07;;;;;;;16.81;82.46;97427.94;5051324;28;20223;-57
2022/12/11 09:55:04;;;;;;;19.23;11.87;;;;;;;16.95;82.06;97446.34;5051399;28;20197;-57
2022/12/11 09:57:46;;;;;;;23.67;12.30;;;;;;;17.04;81.53;97452.91;5050637;28;21208;-57
2022/12/11 10:00:20;;;;;;;19.70;13.87;;;;;;;16.99;81.53;97423.72;5052666;28;20256;-57
2022/12/11 10:03:05;;;;;;;13.10;8.37;;;;;;;17.04;79.05;97430.41;5052428;28;20227;-56
2022/12/11 10:05:41;;;;;;;17.97;12.07;;;;;;;17.25;79.78;97464.16;5052581;28;20190;-56
2022/12/11 10:08:14;;;;;;;15.23;10.73;;;;;;;17.33;79.53;97465.47;5052768;28;20238;-56
2022/12/11 10:10:44;;;;;;;21.17;12.20;;;;;;;17.37;80.00;97461.88;5056422;28;20248;-56
2022/12/11 10:13:22;;;;;;;19.80;12.40;;;;;;;17.44;79.86;97452.06;5071801;28;20280;-55
2022/12/11 10:15:55;;;;;;;20.30;13.13;;;;;;;17.46;80.26;97453.69;5072645;28;20618;-56
2022/12/11 10:18:24;;;;;;;24.27;16.00;;;;;;;17.55;79.86;97444.69;5072263;28;20187;-57
2022/12/11 10:20:52;;;;;;;18.57;12.07;;;;;;;17.57;79.12;97427.28;5071927;28;20194;-57
2022/12/11 10:23:22;;;;;;;19.60;11.63;;;;;;;17.71;78.18;97429.25;5069399;28;20218;-57
2022/12/11 10:25:54;;;;;;;21.17;11.73;;;;;;;17.79;78.07;97425.41;5059639;28;20203;-57
2022/12/11 10:28:21;;;;;;;16.50;11.50;;;;;;;17.89;77.91;97420.59;5072653;28;20229;-57
2022/12/11 10:30:56;;;;;;;27.50;11.97;;;;;;;17.97;78.47;97418.50;5071613;28;20725;-57
2022/12/11 10:33:26;;;;;;;24.50;14.43;;;;;;;18.04;77.84;97412.97;5071912;28;20659;-58
2022/12/11 10:35:55;;;;;;;22.57;14.43;;;;;;;18.08;77.69;97398.03;5072373;28;20187;-57
2022/12/11 10:38:26;;;;;;;31.10;15.50;;;;;;;18.00;77.61;97382.81;5072165;28;20282;-57
2022/12/11 10:40:56;;;;;;;23.93;15.83;;;;;;;17.95;76.83;97374.41;5072082;28;20185;-57
2022/12/11 10:43:34;;;;;;;16.87;13.10;;;;;;;17.94;76.74;97370.13;5071779;28;20215;-56
2022/12/11 10:46:02;;;;;;;15.43;10.33;;;;;;;17.85;75.07;97335.94;5072064;28;20275;-56
2022/12/11 10:48:29;;;;;;;24.70;13.70;;;;;;;18.08;75.60;97354.72;5067388;28;20203;-56
2022/12/11 10:51:00;;;;;;;17.53;12.20;;;;;;;18.20;74.89;97359.34;5051908;28;20192;-56
2022/12/11 10:53:27;;;;;;;25.33;13.55;;;;;;;18.29;74.55;97371.06;5052367;28;20438;-56
2022/12/11 10:55:56;;;;;;;20.37;14.53;;;;;;;18.39;74.27;97358.44;5051419;28;20199;-55
2022/12/11 10:58:26;;;;;;;19.13;15.17;;;;;;;18.45;73.64;97358.97;5050518;28;20192;-56
2022/12/11 11:01:05;;;;;;;24.63;16.07;;;;;;;18.52;72.85;97356.94;5049533;28;20658;-57
2022/12/11 11:03:34;;;;;;;25.43;15.43;;;;;;;18.56;71.85;97361.94;5048246;28;20269;-57
2022/12/11 11:06:16;;;;;;;30.37;16.03;;;;;;;18.59;71.38;97366.13;5050487;28;20246;-57
2022/12/11 11:08:44;;;;;;;26.23;14.50;;;;;;;18.60;70.79;97368.66;5050268;28;20242;-57
2022/12/11 11:11:22;;;;;;;22.63;10.43;;;;;;;18.60;69.42;97370.41;5049265;28;20180;-57
2022/12/11 11:13:50;;;;;;;16.90;9.27;;;;;;;18.60;67.89;97373.84;5051070;28;20195;-57
2022/12/11 11:16:21;;;;;;;19.83;10.57;;;;;;;18.39;67.66;97351.47;5049945;28;20192;-57
2022/12/11 11:18:55;;;;;;;19.60;11.57;;;;;;;18.53;68.77;97375.06;5049847;28;20188;-57
2022/12/11 11:21:24;;;;;;;19.97;11.20;;;;;;;18.48;69.01;97366.66;5049335;28;20184;-57
2022/12/11 11:23:52;;;;;;;17.40;11.57;;;;;;;18.41;69.62;97375.63;5049573;28;20250;-57
2022/12/11 11:26:21;;;;;;;16.30;10.40;;;;;;;18.31;69.79;97376.16;5050316;28;20198;-56
2022/12/11 11:28:50;;;;;;;26.97;18.40;;;;;;;18.08;70.14;97351.28;5050772;28;20535;-56
2022/12/11 11:31:21;;;;;;;15.60;11.10;;;;;;;18.17;70.52;97369.88;5050993;28;20649;-56